createdAt,value
2019-05-23T00:01:02.131Z,101075.17
2019-05-23T00:06:21.001Z,101071.13
2019-05-23T00:11:40.698Z,101076.00
2019-05-23T00:16:46.403Z,101075.88
2019-05-23T00:21:51.638Z,101075.78
2019-05-23T00:27:01.210Z,101077.86
2019-05-23T00:32:20.011Z,101079.36
2019-05-23T00:37:25.513Z,101079.76
2019-05-23T00:42:31.885Z,101078.26
2019-05-23T00:47:39.866Z,101078.67
2019-05-23T00:52:45.518Z,101078.88
2019-05-23T00:57:51.665Z,101081.00
2019-05-23T01:02:58.251Z,101087.20
2019-05-23T01:08:03.966Z,101083.09
2019-05-23T01:13:10.588Z,101090.93
2019-05-23T01:18:15.944Z,101092.03
2019-05-23T01:23:22.638Z,101099.09
2019-05-23T01:28:27.989Z,101097.52
2019-05-23T01:33:34.873Z,101104.18
2019-05-23T01:38:40.303Z,101099.08
2019-05-23T01:43:47.826Z,101097.14
2019-05-23T01:48:52.695Z,101102.60
2019-05-23T01:53:57.638Z,101105.70
2019-05-23T01:59:03.033Z,101110.63
2019-05-23T02:04:08.422Z,101117.50
2019-05-23T02:09:14.995Z,101118.94
2019-05-23T02:14:21.391Z,101122.69
2019-05-23T02:19:28.271Z,101117.67
2019-05-23T02:24:33.401Z,101126.23
2019-05-23T02:29:38.232Z,101133.52
2019-05-23T02:34:43.997Z,101132.55
2019-05-23T02:39:52.401Z,101122.28
2019-05-23T02:45:02.189Z,101118.33
2019-05-23T02:50:20.803Z,101127.61
2019-05-23T02:55:36.087Z,101116.17
2019-05-23T03:00:54.120Z,101121.22
2019-05-23T03:05:56.919Z,101132.19
2019-05-23T03:11:05.209Z,101134.54
2019-05-23T03:16:13.377Z,101134.87
2019-05-23T03:21:20.363Z,101133.02
2019-05-23T03:26:37.411Z,101135.90
2019-05-23T03:31:48.078Z,101140.55
2019-05-23T03:36:55.808Z,101140.50
2019-05-23T03:42:03.227Z,101138.60
2019-05-23T03:47:10.423Z,101141.23
2019-05-23T03:52:17.024Z,101144.08
2019-05-23T03:57:25.792Z,101139.33
2019-05-23T04:02:32.064Z,101140.78
2019-05-23T04:07:39.654Z,101146.64
2019-05-23T04:12:51.082Z,101157.66
2019-05-23T04:17:59.303Z,101166.91
2019-05-23T04:23:05.966Z,101161.09
2019-05-23T04:28:11.251Z,101168.63
2019-05-23T04:33:20.033Z,101168.25
2019-05-23T04:38:26.766Z,101175.33
2019-05-23T04:43:31.993Z,101180.67
2019-05-23T04:48:40.000Z,101176.19
2019-05-23T04:53:46.482Z,101189.16
2019-05-23T04:58:54.939Z,101186.72
2019-05-23T05:04:00.842Z,101183.41
2019-05-23T05:09:08.967Z,101183.08
2019-05-23T05:14:14.377Z,101186.42
2019-05-23T05:19:19.697Z,101192.58
2019-05-23T05:24:24.579Z,101194.75
2019-05-23T05:29:29.472Z,101198.55
2019-05-23T05:34:34.674Z,101202.03
2019-05-23T05:39:39.670Z,101202.48
2019-05-23T05:44:45.209Z,101205.67
2019-05-23T05:49:50.708Z,101204.06
2019-05-23T05:54:55.679Z,101212.36
2019-05-23T06:00:00.512Z,101211.24
2019-05-23T06:05:07.881Z,101214.23
2019-05-23T06:10:15.350Z,101216.64
2019-05-23T06:15:21.117Z,101213.34
2019-05-23T06:20:26.933Z,101220.69
2019-05-23T06:25:32.069Z,101221.62
2019-05-23T06:30:39.083Z,101220.47
2019-05-23T06:35:44.838Z,101222.72
2019-05-23T06:40:50.297Z,101229.42
2019-05-23T06:45:55.209Z,101232.50
2019-05-23T06:51:00.045Z,101225.17
2019-05-23T06:56:05.784Z,101230.78
2019-05-23T07:01:10.737Z,101236.37
2019-05-23T07:06:18.525Z,101235.34
2019-05-23T07:11:24.022Z,101239.58
2019-05-23T07:16:28.988Z,101242.45
2019-05-23T07:21:34.528Z,101235.30
2019-05-23T07:26:39.819Z,101242.92
2019-05-23T07:31:44.750Z,101241.91
2019-05-23T07:36:50.008Z,101251.45
2019-05-23T07:41:55.163Z,101257.71
2019-05-23T07:47:00.172Z,101249.25
2019-05-23T07:52:05.092Z,101251.05
2019-05-23T07:57:11.652Z,101241.74
2019-05-23T08:02:36.055Z,101246.92
2019-05-23T08:07:41.844Z,101245.31
2019-05-23T08:12:47.361Z,101243.28
2019-05-23T08:17:52.323Z,101241.74
2019-05-23T08:22:57.349Z,101241.40
2019-05-23T08:28:02.826Z,101247.39
2019-05-23T08:33:11.177Z,101240.39
2019-05-23T08:38:16.097Z,101246.13
2019-05-23T08:43:21.076Z,101239.30
2019-05-23T08:48:25.925Z,101235.27
2019-05-23T08:53:31.109Z,101244.17
2019-05-23T08:58:38.219Z,101244.73
2019-05-23T09:03:43.325Z,101237.02
2019-05-23T09:08:48.544Z,101237.46
2019-05-23T09:13:54.229Z,101243.19
2019-05-23T09:18:59.159Z,101239.88
